sensor_id;sensor_type;location;lat;lon;timestamp;temperature;humidity
10903;DHT22;5504;47.312;11.060;2022-09-01T00:02:15;17.20;99.60
10903;DHT22;5504;47.312;11.060;2022-09-01T00:04:43;17.20;99.60
10903;DHT22;5504;47.312;11.060;2022-09-01T00:07:11;17.30;99.80
10903;DHT22;5504;47.312;11.060;2022-09-01T00:09:38;17.30;99.70
10903;DHT22;5504;47.312;11.060;2022-09-01T00:12:06;17.20;99.50
10903;DHT22;5504;47.312;11.060;2022-09-01T00:14:35;17.20;99.50
10903;DHT22;5504;47.312;11.060;2022-09-01T00:17:04;17.30;99.60
10903;DHT22;5504;47.312;11.060;2022-09-01T00:19:31;17.30;99.80
10903;DHT22;5504;47.312;11.060;2022-09-01T00:21:58;17.30;99.80
10903;DHT22;5504;47.312;11.060;2022-09-01T00:24:25;17.30;99.70
10903;DHT22;5504;47.312;11.060;2022-09-01T00:26:52;17.30;99.60
10903;DHT22;5504;47.312;11.060;2022-09-01T00:29:18;17.30;99.60
10903;DHT22;5504;47.312;11.060;2022-09-01T00:31:44;17.40;99.40
10903;DHT22;5504;47.312;11.060;2022-09-01T00:34:10;17.40;99.20
10903;DHT22;5504;47.312;11.060;2022-09-01T00:36:36;17.40;99.20
10903;DHT22;5504;47.312;11.060;2022-09-01T00:39:03;17.40;99.30
10903;DHT22;5504;47.312;11.060;2022-09-01T00:41:31;17.50;99.10
10903;DHT22;5504;47.312;11.060;2022-09-01T00:44:01;17.40;99.10
10903;DHT22;5504;47.312;11.060;2022-09-01T00:46:33;17.30;99.40
10903;DHT22;5504;47.312;11.060;2022-09-01T00:51:50;17.30;99.50
10903;DHT22;5504;47.312;11.060;2022-09-01T00:54:20;17.20;99.50
10903;DHT22;5504;47.312;11.060;2022-09-01T00:56:47;17.20;99.60
10903;DHT22;5504;47.312;11.060;2022-09-01T00:59:16;17.30;99.70
10903;DHT22;5504;47.312;11.060;2022-09-01T01:01:43;17.30;99.50
10903;DHT22;5504;47.312;11.060;2022-09-01T01:04:09;17.30;99.40
10903;DHT22;5504;47.312;11.060;2022-09-01T01:06:44;17.20;99.30
10903;DHT22;5504;47.312;11.060;2022-09-01T01:09:19;17.20;99.50
10903;DHT22;5504;47.312;11.060;2022-09-01T01:11:45;17.30;99.40
10903;DHT22;5504;47.312;11.060;2022-09-01T01:14:14;17.20;99.30
10903;DHT22;5504;47.312;11.060;2022-09-01T01:16:45;17.10;99.40
10903;DHT22;5504;47.312;11.060;2022-09-01T01:19:19;17.20;99.60
10903;DHT22;5504;47.312;11.060;2022-09-01T01:22:09;17.20;99.50
10903;DHT22;5504;47.312;11.060;2022-09-01T01:24:55;17.20;99.40
10903;DHT22;5504;47.312;11.060;2022-09-01T01:27:23;17.10;99.60
10903;DHT22;5504;47.312;11.060;2022-09-01T01:29:49;17.10;99.70
10903;DHT22;5504;47.312;11.060;2022-09-01T01:32:17;17.10;99.70
10903;DHT22;5504;47.312;11.060;2022-09-01T01:34:43;17.00;99.60
10903;DHT22;5504;47.312;11.060;2022-09-01T01:37:12;17.10;99.70
10903;DHT22;5504;47.312;11.060;2022-09-01T01:39:41;17.10;99.80
10903;DHT22;5504;47.312;11.060;2022-09-01T01:42:09;17.00;99.80
10903;DHT22;5504;47.312;11.060;2022-09-01T01:44:37;17.10;99.80
10903;DHT22;5504;47.312;11.060;2022-09-01T01:47:05;17.00;99.70
10903;DHT22;5504;47.312;11.060;2022-09-01T01:49:34;17.00;99.70
10903;DHT22;5504;47.312;11.060;2022-09-01T01:52:00;17.00;99.70
10903;DHT22;5504;47.312;11.060;2022-09-01T01:54:27;17.00;99.70
10903;DHT22;5504;47.312;11.060;2022-09-01T01:56:58;17.00;99.70
10903;DHT22;5504;47.312;11.060;2022-09-01T01:59:24;17.00;99.60
10903;DHT22;5504;47.312;11.060;2022-09-01T02:01:51;17.00;99.60
10903;DHT22;5504;47.312;11.060;2022-09-01T02:04:19;16.90;99.60
10903;DHT22;5504;47.312;11.060;2022-09-01T02:06:45;16.90;99.60
10903;DHT22;5504;47.312;11.060;2022-09-01T02:09:14;16.90;99.80
10903;DHT22;5504;47.312;11.060;2022-09-01T02:11:40;16.90;99.80
10903;DHT22;5504;47.312;11.060;2022-09-01T02:14:08;16.90;99.90
10903;DHT22;5504;47.312;11.060;2022-09-01T02:16:35;17.00;99.80
10903;DHT22;5504;47.312;11.060;2022-09-01T02:19:03;17.00;99.70
10903;DHT22;5504;47.312;11.060;2022-09-01T02:21:31;17.00;99.70
10903;DHT22;5504;47.312;11.060;2022-09-01T02:24:03;17.00;99.50
10903;DHT22;5504;47.312;11.060;2022-09-01T02:26:33;17.00;99.60
10903;DHT22;5504;47.312;11.060;2022-09-01T02:29:01;17.10;99.60
10903;DHT22;5504;47.312;11.060;2022-09-01T02:31:30;17.10;99.60
10903;DHT22;5504;47.312;11.060;2022-09-01T02:34:00;17.10;99.60
10903;DHT22;5504;47.312;11.060;2022-09-01T02:36:26;17.10;99.70
10903;DHT22;5504;47.312;11.060;2022-09-01T02:38:53;17.10;99.60
10903;DHT22;5504;47.312;11.060;2022-09-01T02:41:19;17.10;99.60
10903;DHT22;5504;47.312;11.060;2022-09-01T02:43:48;17.10;99.80
10903;DHT22;5504;47.312;11.060;2022-09-01T02:46:14;17.10;99.90
10903;DHT22;5504;47.312;11.060;2022-09-01T02:48:42;17.10;99.90
10903;DHT22;5504;47.312;11.060;2022-09-01T02:51:13;17.10;99.90
10903;DHT22;5504;47.312;11.060;2022-09-01T02:53:40;17.10;99.90
10903;DHT22;5504;47.312;11.060;2022-09-01T02:56:09;17.10;99.80
10903;DHT22;5504;47.312;11.060;2022-09-01T02:58:40;17.10;99.90
10903;DHT22;5504;47.312;11.060;2022-09-01T03:01:23;17.20;99.80
10903;DHT22;5504;47.312;11.060;2022-09-01T03:03:52;17.20;99.70
10903;DHT22;5504;47.312;11.060;2022-09-01T03:06:19;17.10;99.80
10903;DHT22;5504;47.312;11.060;2022-09-01T03:08:46;17.10;99.90
10903;DHT22;5504;47.312;11.060;2022-09-01T03:11:12;17.20;99.90
10903;DHT22;5504;47.312;11.060;2022-09-01T03:13:39;17.20;99.80
10903;DHT22;5504;47.312;11.060;2022-09-01T03:16:06;17.10;99.80
10903;DHT22;5504;47.312;11.060;2022-09-01T03:18:33;17.10;99.90
10903;DHT22;5504;47.312;11.060;2022-09-01T03:20:59;17.20;99.80
10903;DHT22;5504;47.312;11.060;2022-09-01T03:23:27;17.20;99.80
10903;DHT22;5504;47.312;11.060;2022-09-01T03:25:54;17.10;99.60
10903;DHT22;5504;47.312;11.060;2022-09-01T03:28:20;17.20;99.70
10903;DHT22;5504;47.312;11.060;2022-09-01T03:30:49;17.10;99.60
10903;DHT22;5504;47.312;11.060;2022-09-01T03:33:16;17.20;99.40
10903;DHT22;5504;47.312;11.060;2022-09-01T03:35:43;17.20;99.30
10903;DHT22;5504;47.312;11.060;2022-09-01T03:38:09;17.20;99.20
10903;DHT22;5504;47.312;11.060;2022-09-01T03:40:39;17.30;99.30
10903;DHT22;5504;47.312;11.060;2022-09-01T03:43:07;17.30;99.10
10903;DHT22;5504;47.312;11.060;2022-09-01T03:45:37;17.30;99.20
10903;DHT22;5504;47.312;11.060;2022-09-01T03:48:06;17.30;99.40
10903;DHT22;5504;47.312;11.060;2022-09-01T03:50:35;17.20;99.30
10903;DHT22;5504;47.312;11.060;2022-09-01T03:53:04;17.20;99.40
10903;DHT22;5504;47.312;11.060;2022-09-01T03:55:32;17.20;99.40
10903;DHT22;5504;47.312;11.060;2022-09-01T03:58:02;17.20;99.60
10903;DHT22;5504;47.312;11.060;2022-09-01T04:00:32;17.20;99.50
10903;DHT22;5504;47.312;11.060;2022-09-01T04:03:03;17.20;99.40
10903;DHT22;5504;47.312;11.060;2022-09-01T04:05:31;17.20;99.20
10903;DHT22;5504;47.312;11.060;2022-09-01T04:08:03;17.20;99.10
10903;DHT22;5504;47.312;11.060;2022-09-01T04:10:31;17.20;98.80
10903;DHT22;5504;47.312;11.060;2022-09-01T04:12:58;17.20;98.40
10903;DHT22;5504;47.312;11.060;2022-09-01T04:15:26;17.20;98.60
10903;DHT22;5504;47.312;11.060;2022-09-01T04:17:52;17.20;98.90
10903;DHT22;5504;47.312;11.060;2022-09-01T04:20:39;17.20;99.10
10903;DHT22;5504;47.312;11.060;2022-09-01T04:23:17;17.10;99.20
10903;DHT22;5504;47.312;11.060;2022-09-01T04:25:52;17.20;99.20
10903;DHT22;5504;47.312;11.060;2022-09-01T04:28:19;17.10;99.20
10903;DHT22;5504;47.312;11.060;2022-09-01T04:30:54;17.10;99.10
10903;DHT22;5504;47.312;11.060;2022-09-01T04:33:25;17.20;99.10
10903;DHT22;5504;47.312;11.060;2022-09-01T04:35:52;17.20;99.10
10903;DHT22;5504;47.312;11.060;2022-09-01T04:38:23;17.10;99.10
10903;DHT22;5504;47.312;11.060;2022-09-01T04:40:49;17.10;99.20
10903;DHT22;5504;47.312;11.060;2022-09-01T04:43:16;17.10;99.30
10903;DHT22;5504;47.312;11.060;2022-09-01T04:45:41;17.10;99.20
10903;DHT22;5504;47.312;11.060;2022-09-01T04:48:07;17.10;99.20
10903;DHT22;5504;47.312;11.060;2022-09-01T04:50:34;17.10;99.10
10903;DHT22;5504;47.312;11.060;2022-09-01T04:53:02;17.10;99.30
10903;DHT22;5504;47.312;11.060;2022-09-01T04:55:29;17.10;99.30
10903;DHT22;5504;47.312;11.060;2022-09-01T04:57:59;17.10;99.00
10903;DHT22;5504;47.312;11.060;2022-09-01T05:00:26;17.10;99.30
10903;DHT22;5504;47.312;11.060;2022-09-01T05:03:01;17.00;99.50
10903;DHT22;5504;47.312;11.060;2022-09-01T05:05:35;17.00;99.50
10903;DHT22;5504;47.312;11.060;2022-09-01T05:08:06;16.90;99.50
10903;DHT22;5504;47.312;11.060;2022-09-01T05:10:32;17.00;99.70
10903;DHT22;5504;47.312;11.060;2022-09-01T05:13:00;17.00;99.80
10903;DHT22;5504;47.312;11.060;2022-09-01T05:15:26;17.00;99.70
10903;DHT22;5504;47.312;11.060;2022-09-01T05:17:51;17.00;99.50
10903;DHT22;5504;47.312;11.060;2022-09-01T05:20:19;17.00;99.40
10903;DHT22;5504;47.312;11.060;2022-09-01T05:22:45;17.10;99.30
10903;DHT22;5504;47.312;11.060;2022-09-01T05:25:11;17.00;98.90
10903;DHT22;5504;47.312;11.060;2022-09-01T05:27:42;17.10;99.00
10903;DHT22;5504;47.312;11.060;2022-09-01T05:30:17;17.10;98.90
10903;DHT22;5504;47.312;11.060;2022-09-01T05:32:43;17.10;98.90
10903;DHT22;5504;47.312;11.060;2022-09-01T05:35:12;17.10;98.50
10903;DHT22;5504;47.312;11.060;2022-09-01T05:37:38;17.20;98.60
10903;DHT22;5504;47.312;11.060;2022-09-01T05:40:08;17.20;98.40
10903;DHT22;5504;47.312;11.060;2022-09-01T05:42:43;17.20;98.20
10903;DHT22;5504;47.312;11.060;2022-09-01T05:45:09;17.20;98.30
10903;DHT22;5504;47.312;11.060;2022-09-01T05:47:39;17.20;98.40
10903;DHT22;5504;47.312;11.060;2022-09-01T05:50:06;17.20;98.20
10903;DHT22;5504;47.312;11.060;2022-09-01T05:52:37;17.30;98.30
10903;DHT22;5504;47.312;11.060;2022-09-01T05:55:04;17.40;98.00
10903;DHT22;5504;47.312;11.060;2022-09-01T05:57:34;17.40;97.80
10903;DHT22;5504;47.312;11.060;2022-09-01T06:00:03;17.50;97.60
10903;DHT22;5504;47.312;11.060;2022-09-01T06:02:35;17.50;97.30
10903;DHT22;5504;47.312;11.060;2022-09-01T06:05:02;17.40;97.20
10903;DHT22;5504;47.312;11.060;2022-09-01T06:07:28;17.40;97.40
10903;DHT22;5504;47.312;11.060;2022-09-01T06:09:54;17.40;97.40
10903;DHT22;5504;47.312;11.060;2022-09-01T06:12:21;17.50;97.30
10903;DHT22;5504;47.312;11.060;2022-09-01T06:14:53;17.50;97.30
10903;DHT22;5504;47.312;11.060;2022-09-01T06:17:21;17.40;97.10
10903;DHT22;5504;47.312;11.060;2022-09-01T06:19:50;17.50;97.60
10903;DHT22;5504;47.312;11.060;2022-09-01T06:22:18;17.70;97.10
10903;DHT22;5504;47.312;11.060;2022-09-01T06:24:45;17.40;96.80
10903;DHT22;5504;47.312;11.060;2022-09-01T06:27:13;17.60;97.10
10903;DHT22;5504;47.312;11.060;2022-09-01T06:29:42;17.80;96.90
10903;DHT22;5504;47.312;11.060;2022-09-01T06:32:10;17.90;96.80
10903;DHT22;5504;47.312;11.060;2022-09-01T06:34:42;18.00;96.40
10903;DHT22;5504;47.312;11.060;2022-09-01T06:37:12;18.10;96.40
10903;DHT22;5504;47.312;11.060;2022-09-01T06:39:38;18.20;96.40
10903;DHT22;5504;47.312;11.060;2022-09-01T06:42:04;18.20;95.80
10903;DHT22;5504;47.312;11.060;2022-09-01T06:44:30;18.30;95.60
10903;DHT22;5504;47.312;11.060;2022-09-01T06:46:57;18.20;95.80
10903;DHT22;5504;47.312;11.060;2022-09-01T06:49:24;18.30;95.90
10903;DHT22;5504;47.312;11.060;2022-09-01T06:51:57;18.30;95.50
10903;DHT22;5504;47.312;11.060;2022-09-01T06:54:24;18.20;94.80
10903;DHT22;5504;47.312;11.060;2022-09-01T06:56:50;18.10;95.10
10903;DHT22;5504;47.312;11.060;2022-09-01T06:59:16;18.20;94.90
10903;DHT22;5504;47.312;11.060;2022-09-01T07:01:42;18.10;94.80
10903;DHT22;5504;47.312;11.060;2022-09-01T07:04:08;18.20;94.90
10903;DHT22;5504;47.312;11.060;2022-09-01T07:06:34;18.30;95.10
10903;DHT22;5504;47.312;11.060;2022-09-01T07:09:02;18.30;94.70
10903;DHT22;5504;47.312;11.060;2022-09-01T07:11:31;18.30;94.90
10903;DHT22;5504;47.312;11.060;2022-09-01T07:14:00;18.20;94.70
10903;DHT22;5504;47.312;11.060;2022-09-01T07:16:31;18.30;95.10
10903;DHT22;5504;47.312;11.060;2022-09-01T07:19:00;18.30;94.80
10903;DHT22;5504;47.312;11.060;2022-09-01T07:21:28;18.20;94.90
10903;DHT22;5504;47.312;11.060;2022-09-01T07:23:55;18.30;94.80
10903;DHT22;5504;47.312;11.060;2022-09-01T07:26:22;18.30;94.50
10903;DHT22;5504;47.312;11.060;2022-09-01T07:28:50;18.30;94.40
10903;DHT22;5504;47.312;11.060;2022-09-01T07:31:28;18.30;94.30
10903;DHT22;5504;47.312;11.060;2022-09-01T07:33:58;18.30;94.60
10903;DHT22;5504;47.312;11.060;2022-09-01T07:36:25;18.40;94.90
10903;DHT22;5504;47.312;11.060;2022-09-01T07:38:51;18.50;94.70
10903;DHT22;5504;47.312;11.060;2022-09-01T07:41:23;18.40;94.40
10903;DHT22;5504;47.312;11.060;2022-09-01T07:43:49;18.50;94.90
10903;DHT22;5504;47.312;11.060;2022-09-01T07:46:21;18.70;94.70
10903;DHT22;5504;47.312;11.060;2022-09-01T07:48:48;18.90;94.30
10903;DHT22;5504;47.312;11.060;2022-09-01T07:51:18;18.90;93.60
10903;DHT22;5504;47.312;11.060;2022-09-01T07:53:45;19.10;93.80
10903;DHT22;5504;47.312;11.060;2022-09-01T07:56:13;18.90;92.80
10903;DHT22;5504;47.312;11.060;2022-09-01T07:58:40;19.10;93.10
10903;DHT22;5504;47.312;11.060;2022-09-01T08:01:11;19.30;93.20
10903;DHT22;5504;47.312;11.060;2022-09-01T08:03:39;19.00;92.70
10903;DHT22;5504;47.312;11.060;2022-09-01T08:06:09;18.60;92.90
10903;DHT22;5504;47.312;11.060;2022-09-01T08:08:37;19.00;93.10
10903;DHT22;5504;47.312;11.060;2022-09-01T08:11:03;19.20;92.80
10903;DHT22;5504;47.312;11.060;2022-09-01T08:13:29;19.40;92.90
10903;DHT22;5504;47.312;11.060;2022-09-01T08:15:54;19.50;92.50
10903;DHT22;5504;47.312;11.060;2022-09-01T08:18:20;19.70;93.20
10903;DHT22;5504;47.312;11.060;2022-09-01T08:20:46;19.50;91.40
10903;DHT22;5504;47.312;11.060;2022-09-01T08:23:15;19.70;92.60
10903;DHT22;5504;47.312;11.060;2022-09-01T08:25:43;20.10;93.50
10903;DHT22;5504;47.312;11.060;2022-09-01T08:28:11;21.20;93.40
10903;DHT22;5504;47.312;11.060;2022-09-01T08:30:38;22.20;91.90
10903;DHT22;5504;47.312;11.060;2022-09-01T08:33:04;22.10;87.50
10903;DHT22;5504;47.312;11.060;2022-09-01T08:35:30;22.80;89.70
10903;DHT22;5504;47.312;11.060;2022-09-01T08:37:57;23.30;85.00
10903;DHT22;5504;47.312;11.060;2022-09-01T08:40:24;23.80;86.20
10903;DHT22;5504;47.312;11.060;2022-09-01T08:45:57;23.50;77.20
10903;DHT22;5504;47.312;11.060;2022-09-01T08:48:37;23.10;82.60
10903;DHT22;5504;47.312;11.060;2022-09-01T08:51:13;23.00;80.60
10903;DHT22;5504;47.312;11.060;2022-09-01T08:53:46;23.40;76.60
10903;DHT22;5504;47.312;11.060;2022-09-01T08:56:16;23.30;80.00
10903;DHT22;5504;47.312;11.060;2022-09-01T08:58:43;23.40;78.80
10903;DHT22;5504;47.312;11.060;2022-09-01T09:01:19;23.30;79.50
10903;DHT22;5504;47.312;11.060;2022-09-01T09:04:10;23.10;78.90
10903;DHT22;5504;47.312;11.060;2022-09-01T09:07:00;23.10;79.60
10903;DHT22;5504;47.312;11.060;2022-09-01T09:09:49;23.00;80.10
10903;DHT22;5504;47.312;11.060;2022-09-01T09:17:50;23.00;78.70
10903;DHT22;5504;47.312;11.060;2022-09-01T09:20:20;22.90;78.70
10903;DHT22;5504;47.312;11.060;2022-09-01T09:22:48;22.20;77.10
10903;DHT22;5504;47.312;11.060;2022-09-01T09:25:16;22.90;85.10
10903;DHT22;5504;47.312;11.060;2022-09-01T09:27:44;23.60;80.50
10903;DHT22;5504;47.312;11.060;2022-09-01T09:30:21;24.10;73.90
10903;DHT22;5504;47.312;11.060;2022-09-01T09:32:51;24.80;76.10
10903;DHT22;5504;47.312;11.060;2022-09-01T09:37:49;25.50;71.60
10903;DHT22;5504;47.312;11.060;2022-09-01T09:40:19;23.80;67.80
10903;DHT22;5504;47.312;11.060;2022-09-01T09:45:26;25.40;75.80
10903;DHT22;5504;47.312;11.060;2022-09-01T09:47:56;25.60;67.60
10903;DHT22;5504;47.312;11.060;2022-09-01T09:50:31;26.00;71.30
10903;DHT22;5504;47.312;11.060;2022-09-01T09:53:13;25.60;65.00
10903;DHT22;5504;47.312;11.060;2022-09-01T09:56:17;25.20;68.40
10903;DHT22;5504;47.312;11.060;2022-09-01T09:58:45;25.80;69.10
10903;DHT22;5504;47.312;11.060;2022-09-01T10:03:56;26.30;63.80
10903;DHT22;5504;47.312;11.060;2022-09-01T10:06:37;25.50;62.30
10903;DHT22;5504;47.312;11.060;2022-09-01T10:09:06;25.10;68.00
10903;DHT22;5504;47.312;11.060;2022-09-01T10:11:41;25.00;67.20
10903;DHT22;5504;47.312;11.060;2022-09-01T10:14:18;24.60;67.50
10903;DHT22;5504;47.312;11.060;2022-09-01T10:16:49;24.60;68.10
10903;DHT22;5504;47.312;11.060;2022-09-01T10:19:17;24.70;69.70
10903;DHT22;5504;47.312;11.060;2022-09-01T10:21:45;24.30;68.80
10903;DHT22;5504;47.312;11.060;2022-09-01T10:24:25;24.30;69.30
10903;DHT22;5504;47.312;11.060;2022-09-01T10:26:58;24.30;70.70
10903;DHT22;5504;47.312;11.060;2022-09-01T10:29:34;24.40;71.20
10903;DHT22;5504;47.312;11.060;2022-09-01T10:32:07;24.30;70.40
10903;DHT22;5504;47.312;11.060;2022-09-01T10:34:36;24.00;69.80
10903;DHT22;5504;47.312;11.060;2022-09-01T10:37:04;24.00;73.20
10903;DHT22;5504;47.312;11.060;2022-09-01T10:39:31;23.80;71.00
10903;DHT22;5504;47.312;11.060;2022-09-01T10:41:58;23.80;72.20
10903;DHT22;5504;47.312;11.060;2022-09-01T10:44:35;23.70;71.90
10903;DHT22;5504;47.312;11.060;2022-09-01T10:55:36;24.30;72.20
10903;DHT22;5504;47.312;11.060;2022-09-01T10:58:20;24.70;72.30
10903;DHT22;5504;47.312;11.060;2022-09-01T11:00:51;25.40;72.90
10903;DHT22;5504;47.312;11.060;2022-09-01T11:11:36;24.90;71.50
10903;DHT22;5504;47.312;11.060;2022-09-01T11:13:59;24.80;70.90
10903;DHT22;5504;47.312;11.060;2022-09-01T11:16:38;24.60;71.60
10903;DHT22;5504;47.312;11.060;2022-09-01T11:19:40;24.50;71.40
10903;DHT22;5504;47.312;11.060;2022-09-01T11:25:46;25.00;70.70
10903;DHT22;5504;47.312;11.060;2022-09-01T11:30:52;24.90;70.70
10903;DHT22;5504;47.312;11.060;2022-09-01T11:36:15;25.20;69.80
10903;DHT22;5504;47.312;11.060;2022-09-01T11:47:02;25.80;66.50
10903;DHT22;5504;47.312;11.060;2022-09-01T11:49:38;25.80;60.80
10903;DHT22;5504;47.312;11.060;2022-09-01T11:52:05;25.40;62.60
10903;DHT22;5504;47.312;11.060;2022-09-01T11:54:40;25.80;65.40
10903;DHT22;5504;47.312;11.060;2022-09-01T11:57:36;25.20;61.50
10903;DHT22;5504;47.312;11.060;2022-09-01T12:00:12;25.10;66.10
10903;DHT22;5504;47.312;11.060;2022-09-01T12:02:48;25.20;67.00
10903;DHT22;5504;47.312;11.060;2022-09-01T12:05:30;25.20;66.20
10903;DHT22;5504;47.312;11.060;2022-09-01T12:07:56;24.40;62.80
10903;DHT22;5504;47.312;11.060;2022-09-01T12:13:15;24.40;70.80
10903;DHT22;5504;47.312;11.060;2022-09-01T12:15:41;25.30;70.90
10903;DHT22;5504;47.312;11.060;2022-09-01T12:18:19;24.40;68.40
10903;DHT22;5504;47.312;11.060;2022-09-01T12:20:50;24.30;69.80
10903;DHT22;5504;47.312;11.060;2022-09-01T12:23:17;24.20;68.40
10903;DHT22;5504;47.312;11.060;2022-09-01T12:25:44;24.00;69.00
10903;DHT22;5504;47.312;11.060;2022-09-01T12:28:10;23.70;66.20
10903;DHT22;5504;47.312;11.060;2022-09-01T12:30:36;23.70;68.40
10903;DHT22;5504;47.312;11.060;2022-09-01T12:33:07;23.60;67.40
10903;DHT22;5504;47.312;11.060;2022-09-01T12:35:34;23.20;67.20
10903;DHT22;5504;47.312;11.060;2022-09-01T12:40:51;22.70;70.10
10903;DHT22;5504;47.312;11.060;2022-09-01T12:43:33;22.60;68.00
10903;DHT22;5504;47.312;11.060;2022-09-01T12:46:00;22.20;67.80
10903;DHT22;5504;47.312;11.060;2022-09-01T12:48:30;22.30;72.90
10903;DHT22;5504;47.312;11.060;2022-09-01T12:50:59;22.10;70.30
10903;DHT22;5504;47.312;11.060;2022-09-01T12:53:27;21.60;70.40
10903;DHT22;5504;47.312;11.060;2022-09-01T12:56:03;22.10;73.30
10903;DHT22;5504;47.312;11.060;2022-09-01T12:58:30;22.80;69.70
10903;DHT22;5504;47.312;11.060;2022-09-01T13:01:01;22.50;72.10
10903;DHT22;5504;47.312;11.060;2022-09-01T13:03:29;22.70;70.70
10903;DHT22;5504;47.312;11.060;2022-09-01T13:05:59;23.30;72.00
10903;DHT22;5504;47.312;11.060;2022-09-01T13:08:31;23.50;68.00
10903;DHT22;5504;47.312;11.060;2022-09-01T13:11:08;23.70;68.40
10903;DHT22;5504;47.312;11.060;2022-09-01T13:13:34;23.80;66.50
10903;DHT22;5504;47.312;11.060;2022-09-01T13:16:01;23.60;67.80
10903;DHT22;5504;47.312;11.060;2022-09-01T13:18:29;23.60;67.10
10903;DHT22;5504;47.312;11.060;2022-09-01T13:20:56;23.50;68.00
10903;DHT22;5504;47.312;11.060;2022-09-01T13:23:23;23.40;67.60
10903;DHT22;5504;47.312;11.060;2022-09-01T13:25:49;23.50;66.40
10903;DHT22;5504;47.312;11.060;2022-09-01T13:28:16;23.40;68.00
10903;DHT22;5504;47.312;11.060;2022-09-01T13:30:44;23.00;65.70
10903;DHT22;5504;47.312;11.060;2022-09-01T13:33:12;23.20;67.00
10903;DHT22;5504;47.312;11.060;2022-09-01T13:35:38;22.60;67.00
10903;DHT22;5504;47.312;11.060;2022-09-01T13:38:03;22.80;68.60
10903;DHT22;5504;47.312;11.060;2022-09-01T13:40:29;23.00;70.10
10903;DHT22;5504;47.312;11.060;2022-09-01T13:42:55;23.40;69.40
10903;DHT22;5504;47.312;11.060;2022-09-01T13:45:22;24.20;71.90
10903;DHT22;5504;47.312;11.060;2022-09-01T13:47:52;25.10;72.30
10903;DHT22;5504;47.312;11.060;2022-09-01T13:50:19;25.10;62.70
10903;DHT22;5504;47.312;11.060;2022-09-01T13:52:51;24.40;65.40
10903;DHT22;5504;47.312;11.060;2022-09-01T13:55:27;24.50;66.60
10903;DHT22;5504;47.312;11.060;2022-09-01T13:57:53;24.60;66.00
10903;DHT22;5504;47.312;11.060;2022-09-01T14:00:27;23.90;66.80
10903;DHT22;5504;47.312;11.060;2022-09-01T14:02:55;24.30;69.80
10903;DHT22;5504;47.312;11.060;2022-09-01T14:05:30;23.60;68.30
10903;DHT22;5504;47.312;11.060;2022-09-01T14:07:57;23.50;68.60
10903;DHT22;5504;47.312;11.060;2022-09-01T14:10:24;23.30;71.40
10903;DHT22;5504;47.312;11.060;2022-09-01T14:12:52;23.10;68.40
10903;DHT22;5504;47.312;11.060;2022-09-01T14:15:19;22.80;66.40
10903;DHT22;5504;47.312;11.060;2022-09-01T14:17:50;22.40;67.50
10903;DHT22;5504;47.312;11.060;2022-09-01T14:20:20;22.90;69.00
10903;DHT22;5504;47.312;11.060;2022-09-01T14:22:47;23.30;66.90
10903;DHT22;5504;47.312;11.060;2022-09-01T14:25:14;23.50;67.80
10903;DHT22;5504;47.312;11.060;2022-09-01T14:27:40;23.80;65.70
10903;DHT22;5504;47.312;11.060;2022-09-01T14:30:10;23.70;67.70
10903;DHT22;5504;47.312;11.060;2022-09-01T14:32:36;23.30;63.20
10903;DHT22;5504;47.312;11.060;2022-09-01T14:35:03;23.90;67.60
10903;DHT22;5504;47.312;11.060;2022-09-01T14:37:32;23.60;63.40
10903;DHT22;5504;47.312;11.060;2022-09-01T14:39:58;23.70;67.50
10903;DHT22;5504;47.312;11.060;2022-09-01T14:42:24;24.10;64.80
10903;DHT22;5504;47.312;11.060;2022-09-01T14:44:53;24.10;63.50
10903;DHT22;5504;47.312;11.060;2022-09-01T14:47:19;23.70;64.00
10903;DHT22;5504;47.312;11.060;2022-09-01T14:49:45;23.20;64.50
10903;DHT22;5504;47.312;11.060;2022-09-01T14:52:11;23.30;68.40
10903;DHT22;5504;47.312;11.060;2022-09-01T14:54:40;23.00;64.10
10903;DHT22;5504;47.312;11.060;2022-09-01T14:57:07;23.50;65.40
10903;DHT22;5504;47.312;11.060;2022-09-01T14:59:33;23.80;63.60
10903;DHT22;5504;47.312;11.060;2022-09-01T15:01:59;24.00;64.70
10903;DHT22;5504;47.312;11.060;2022-09-01T15:04:24;23.70;62.30
10903;DHT22;5504;47.312;11.060;2022-09-01T15:06:52;23.90;62.50
10903;DHT22;5504;47.312;11.060;2022-09-01T15:09:18;23.50;60.50
10903;DHT22;5504;47.312;11.060;2022-09-01T15:11:44;23.30;63.90
10903;DHT22;5504;47.312;11.060;2022-09-01T15:14:09;23.40;62.70
10903;DHT22;5504;47.312;11.060;2022-09-01T15:16:36;23.20;63.90
10903;DHT22;5504;47.312;11.060;2022-09-01T15:19:10;23.30;64.10
10903;DHT22;5504;47.312;11.060;2022-09-01T15:21:37;23.10;62.80
10903;DHT22;5504;47.312;11.060;2022-09-01T15:24:04;22.90;64.50
10903;DHT22;5504;47.312;11.060;2022-09-01T15:26:30;22.90;63.70
10903;DHT22;5504;47.312;11.060;2022-09-01T15:28:57;22.90;64.10
10903;DHT22;5504;47.312;11.060;2022-09-01T15:31:24;22.80;64.80
10903;DHT22;5504;47.312;11.060;2022-09-01T15:33:54;22.90;64.50
10903;DHT22;5504;47.312;11.060;2022-09-01T15:36:22;22.60;65.00
10903;DHT22;5504;47.312;11.060;2022-09-01T15:38:50;22.60;65.00
10903;DHT22;5504;47.312;11.060;2022-09-01T15:41:21;22.50;65.30
10903;DHT22;5504;47.312;11.060;2022-09-01T15:43:47;22.40;64.70
10903;DHT22;5504;47.312;11.060;2022-09-01T15:46:14;22.40;65.10
10903;DHT22;5504;47.312;11.060;2022-09-01T15:48:40;22.30;66.50
10903;DHT22;5504;47.312;11.060;2022-09-01T15:53:40;21.90;66.70
10903;DHT22;5504;47.312;11.060;2022-09-01T15:56:06;21.80;66.70
10903;DHT22;5504;47.312;11.060;2022-09-01T15:58:33;21.70;66.70
10903;DHT22;5504;47.312;11.060;2022-09-01T16:00:59;21.60;67.70
10903;DHT22;5504;47.312;11.060;2022-09-01T16:03:26;21.60;67.80
10903;DHT22;5504;47.312;11.060;2022-09-01T16:05:54;21.50;67.20
10903;DHT22;5504;47.312;11.060;2022-09-01T16:08:20;21.40;67.60
10903;DHT22;5504;47.312;11.060;2022-09-01T16:10:46;21.40;67.20
10903;DHT22;5504;47.312;11.060;2022-09-01T16:13:11;21.30;67.70
10903;DHT22;5504;47.312;11.060;2022-09-01T16:15:45;21.40;67.50
10903;DHT22;5504;47.312;11.060;2022-09-01T16:18:36;21.40;67.80
10903;DHT22;5504;47.312;11.060;2022-09-01T16:23:46;21.40;68.30
10903;DHT22;5504;47.312;11.060;2022-09-01T16:26:17;21.50;67.90
10903;DHT22;5504;47.312;11.060;2022-09-01T16:28:51;21.40;67.90
10903;DHT22;5504;47.312;11.060;2022-09-01T16:31:27;21.20;68.50
10903;DHT22;5504;47.312;11.060;2022-09-01T16:33:55;21.30;68.40
10903;DHT22;5504;47.312;11.060;2022-09-01T16:36:28;21.30;68.40
10903;DHT22;5504;47.312;11.060;2022-09-01T16:39:12;21.30;68.70
10903;DHT22;5504;47.312;11.060;2022-09-01T16:52:35;21.20;68.20
10903;DHT22;5504;47.312;11.060;2022-09-01T16:55:28;21.20;68.80
10903;DHT22;5504;47.312;11.060;2022-09-01T16:58:19;21.10;69.30
10903;DHT22;5504;47.312;11.060;2022-09-01T17:01:01;21.00;68.90